Time;durP1;ratioP1;P1;durP2;ratioP2;P2;SDS_P1;SDS_P2;PMS_P1;PMS_P2;Temp;Humidity;BMP_temperature;BMP_pressure;BME280_temperature;BME280_humidity;BME280_pressure;Samples;Min_cycle;Max_cycle;Signal;HPM_P1;HPM_P2
2022/04/12 00:00:58;;;;;;;12.65;7.38;;;6.90;99.90;;;;;;5114583;28;20441;-75
2022/04/12 00:03:24;;;;;;;12.10;7.57;;;6.90;99.90;;;;;;5114091;28;20101;-75
2022/04/12 00:05:51;;;;;;;12.25;7.45;;;6.80;99.90;;;;;;5114680;28;20070;-75
2022/04/12 00:08:17;;;;;;;11.77;7.75;;;6.80;99.90;;;;;;5113203;28;20079;-75
2022/04/12 00:10:44;;;;;;;9.93;7.03;;;6.80;99.90;;;;;;5112370;28;20096;-76
2022/04/12 00:13:10;;;;;;;12.55;6.68;;;6.80;99.90;;;;;;5113440;28;20051;-75
2022/04/12 00:15:35;;;;;;;15.07;7.22;;;6.80;99.90;;;;;;5113493;28;20046;-75
2022/04/12 00:20:46;;;;;;;10.70;6.57;;;6.70;99.90;;;;;;5113020;28;20130;-75
2022/04/12 00:23:14;;;;;;;10.60;6.65;;;6.70;99.90;;;;;;5112317;28;20126;-75
2022/04/12 00:25:43;;;;;;;11.45;7.07;;;6.70;99.90;;;;;;5112725;28;20123;-75
2022/04/12 00:28:09;;;;;;;9.45;7.05;;;6.70;99.90;;;;;;5112766;28;20083;-75
2022/04/12 00:30:35;;;;;;;10.18;7.10;;;6.70;99.90;;;;;;5112173;28;20078;-75
2022/04/12 00:33:01;;;;;;;13.05;7.28;;;6.60;99.90;;;;;;5114495;28;20043;-75
2022/04/12 00:35:26;;;;;;;11.60;7.40;;;6.60;99.90;;;;;;5112678;28;20043;-75
2022/04/12 00:37:53;;;;;;;10.15;7.18;;;6.60;99.90;;;;;;5112688;28;20054;-75
2022/04/12 00:40:21;;;;;;;11.45;7.45;;;6.60;99.90;;;;;;5095862;28;20050;-75
2022/04/12 00:42:48;;;;;;;13.18;7.50;;;6.60;99.90;;;;;;5095923;28;20067;-75
2022/04/12 00:45:14;;;;;;;10.48;7.03;;;6.60;99.90;;;;;;5111925;28;20039;-75
2022/04/12 00:47:40;;;;;;;11.52;7.13;;;6.50;99.90;;;;;;5113127;28;20040;-75
2022/04/12 00:50:09;;;;;;;10.27;7.13;;;6.50;99.90;;;;;;5112043;28;20082;-75
2022/04/12 00:52:39;;;;;;;12.93;7.38;;;6.50;99.90;;;;;;5112184;28;20044;-75
2022/04/12 00:55:05;;;;;;;9.30;7.32;;;6.40;99.90;;;;;;5112879;28;20047;-75
2022/04/12 00:57:36;;;;;;;12.05;7.13;;;6.40;99.90;;;;;;5112030;28;20048;-75
2022/04/12 01:00:07;;;;;;;12.77;7.45;;;6.40;99.90;;;;;;5112115;28;20047;-75
2022/04/12 01:02:34;;;;;;;11.20;7.75;;;6.40;99.90;;;;;;5112397;28;20487;-75
2022/04/12 01:05:01;;;;;;;10.23;7.18;;;6.30;99.90;;;;;;5112869;28;20486;-75
2022/04/12 01:07:28;;;;;;;11.35;6.85;;;6.30;99.90;;;;;;5112720;28;20486;-75
2022/04/12 01:09:55;;;;;;;13.98;7.97;;;6.20;99.90;;;;;;5112614;28;20051;-75
2022/04/12 01:12:21;;;;;;;9.95;7.70;;;6.20;99.90;;;;;;5108030;28;20053;-75
2022/04/12 01:14:48;;;;;;;14.93;7.45;;;6.20;99.90;;;;;;5092259;28;20131;-75
2022/04/12 01:17:15;;;;;;;10.30;7.20;;;6.10;99.90;;;;;;5110529;28;20097;-75
2022/04/12 01:19:42;;;;;;;11.55;7.05;;;6.10;99.90;;;;;;5112745;28;20079;-75
2022/04/12 01:22:24;;;;;;;11.23;8.30;;;6.00;99.90;;;;;;5113172;28;20092;-76
2022/04/12 01:24:50;;;;;;;10.20;7.32;;;6.00;99.90;;;;;;5112032;28;20105;-75
2022/04/12 01:27:16;;;;;;;12.63;7.50;;;5.90;99.90;;;;;;5094970;28;20047;-75
2022/04/12 01:29:41;;;;;;;11.45;7.57;;;5.90;99.90;;;;;;5095209;28;20047;-75
2022/04/12 01:32:08;;;;;;;10.73;7.53;;;5.90;99.90;;;;;;5113281;28;20071;-75
2022/04/12 01:34:37;;;;;;;11.30;8.27;;;5.90;99.90;;;;;;5111799;28;20122;-75
2022/04/12 01:37:07;;;;;;;10.13;8.07;;;5.80;99.90;;;;;;5113746;28;20389;-75
2022/04/12 01:39:33;;;;;;;11.77;7.75;;;5.70;99.90;;;;;;5113165;28;20105;-76
2022/04/12 01:41:59;;;;;;;14.55;8.52;;;5.70;99.90;;;;;;5111806;28;20058;-75
2022/04/12 01:44:26;;;;;;;11.18;7.68;;;5.70;99.90;;;;;;5113188;28;20040;-75
2022/04/12 01:46:52;;;;;;;10.10;6.88;;;5.70;99.90;;;;;;5112262;28;20089;-76
2022/04/12 01:49:18;;;;;;;10.73;7.95;;;5.70;99.90;;;;;;5111100;28;20445;-75
2022/04/12 01:51:43;;;;;;;11.02;7.25;;;5.60;99.90;;;;;;5112171;28;20083;-75
2022/04/12 01:54:10;;;;;;;15.50;7.32;;;5.60;99.90;;;;;;5112252;28;20047;-75
2022/04/12 01:56:36;;;;;;;12.70;7.85;;;5.60;99.90;;;;;;5113657;28;20040;-75
2022/04/12 01:59:04;;;;;;;11.00;8.15;;;5.60;99.90;;;;;;5111807;28;20104;-75
2022/04/12 02:01:30;;;;;;;10.13;6.93;;;5.50;99.90;;;;;;5112350;28;20133;-75
2022/04/12 02:03:55;;;;;;;10.95;8.10;;;5.40;99.90;;;;;;5113268;28;20067;-75
2022/04/12 02:06:22;;;;;;;12.63;8.93;;;5.40;99.90;;;;;;5111727;28;20559;-75
2022/04/12 02:08:47;;;;;;;17.35;9.63;;;5.40;99.90;;;;;;5111170;28;20100;-75
2022/04/12 02:11:14;;;;;;;10.88;8.23;;;5.40;99.90;;;;;;5111854;28;20048;-75
2022/04/12 02:13:40;;;;;;;13.18;8.15;;;5.40;99.90;;;;;;5115177;28;20189;-75
2022/04/12 02:16:05;;;;;;;11.48;7.82;;;5.40;99.90;;;;;;5116120;28;20071;-75
2022/04/12 02:18:32;;;;;;;10.32;8.00;;;5.30;99.90;;;;;;5115662;28;20474;-75
2022/04/12 02:20:58;;;;;;;12.18;7.88;;;5.30;99.90;;;;;;5116540;28;20038;-75
2022/04/12 02:23:23;;;;;;;14.15;9.02;;;5.30;99.90;;;;;;5116045;28;20035;-75
2022/04/12 02:25:49;;;;;;;13.63;9.18;;;5.20;99.90;;;;;;5116554;28;20043;-75
2022/04/12 02:28:16;;;;;;;14.30;9.13;;;5.20;99.90;;;;;;5115142;28;20054;-75
2022/04/12 02:30:43;;;;;;;13.73;8.93;;;5.10;99.90;;;;;;5114467;28;20097;-75
2022/04/12 02:33:09;;;;;;;10.20;8.02;;;5.10;99.90;;;;;;5115201;28;20482;-75
2022/04/12 02:35:35;;;;;;;14.93;9.07;;;5.10;99.90;;;;;;5116256;28;20114;-75
2022/04/12 02:38:01;;;;;;;11.27;8.48;;;5.10;99.90;;;;;;5114427;28;20534;-75
2022/04/12 02:40:27;;;;;;;18.38;9.88;;;5.00;99.90;;;;;;5116540;28;20402;-75
2022/04/12 02:42:52;;;;;;;10.73;7.82;;;5.00;99.90;;;;;;5115862;28;20120;-75
2022/04/12 02:45:18;;;;;;;13.07;8.50;;;5.00;99.90;;;;;;5114872;28;20039;-75
2022/04/12 02:47:44;;;;;;;18.65;8.98;;;4.90;99.90;;;;;;5114889;28;20079;-75
2022/04/12 02:50:10;;;;;;;14.05;8.27;;;4.90;99.90;;;;;;5114365;28;20059;-75
2022/04/12 02:52:35;;;;;;;11.77;9.77;;;4.80;99.90;;;;;;5115352;28;20057;-75
2022/04/12 02:55:01;;;;;;;17.05;9.90;;;4.70;99.90;;;;;;5116161;28;20047;-75
2022/04/12 02:57:27;;;;;;;10.73;8.70;;;4.70;99.90;;;;;;5113825;28;20043;-75
2022/04/12 02:59:53;;;;;;;14.93;8.88;;;4.60;99.90;;;;;;5116083;28;20047;-75
2022/04/12 03:02:18;;;;;;;12.27;9.23;;;4.60;99.90;;;;;;5114641;28;20051;-75
2022/04/12 03:04:44;;;;;;;14.63;8.45;;;4.60;99.90;;;;;;5113663;28;20083;-75
2022/04/12 03:07:10;;;;;;;18.02;9.98;;;4.60;99.90;;;;;;5115708;28;20126;-75
2022/04/12 03:09:36;;;;;;;12.65;9.40;;;4.60;99.90;;;;;;5115356;28;20040;-75
2022/04/12 03:12:02;;;;;;;12.10;9.32;;;4.70;99.90;;;;;;5115096;28;20047;-75
2022/04/12 03:14:28;;;;;;;11.85;9.13;;;4.70;99.90;;;;;;5115552;28;20123;-75
2022/04/12 03:16:53;;;;;;;11.27;9.70;;;4.70;99.90;;;;;;5114326;28;20047;-75
2022/04/12 03:19:19;;;;;;;17.35;10.30;;;4.80;99.90;;;;;;5114763;28;20075;-75
2022/04/12 03:21:45;;;;;;;13.77;10.30;;;4.80;99.90;;;;;;5115758;28;20050;-75
2022/04/12 03:24:11;;;;;;;15.38;9.27;;;4.80;99.90;;;;;;5113626;28;20092;-75
2022/04/12 03:26:37;;;;;;;14.38;9.68;;;4.90;99.90;;;;;;5113685;28;20047;-75
2022/04/12 03:29:03;;;;;;;12.23;9.13;;;4.90;99.90;;;;;;5113792;28;20119;-75
2022/04/12 03:31:29;;;;;;;13.82;9.40;;;4.90;99.90;;;;;;5114251;28;20055;-75
2022/04/12 03:33:54;;;;;;;14.07;9.85;;;4.90;99.90;;;;;;5114415;28;20385;-75
2022/04/12 03:36:20;;;;;;;10.90;8.55;;;5.00;99.90;;;;;;5115553;27;20043;-75
2022/04/12 03:38:48;;;;;;;13.80;9.60;;;5.00;99.90;;;;;;5113790;28;20047;-75
2022/04/12 03:41:21;;;;;;;17.48;10.32;;;5.00;99.90;;;;;;5114736;28;20054;-75
2022/04/12 03:43:47;;;;;;;13.25;10.18;;;5.00;99.90;;;;;;5115245;28;20055;-75
2022/04/12 03:46:13;;;;;;;13.48;9.10;;;5.00;99.90;;;;;;5113595;28;20051;-75
2022/04/12 03:48:40;;;;;;;18.15;9.85;;;4.90;99.90;;;;;;5113010;28;20079;-75
2022/04/12 03:51:05;;;;;;;12.50;9.45;;;4.90;99.90;;;;;;5114764;28;20564;-75
2022/04/12 03:53:31;;;;;;;14.25;9.57;;;4.90;99.90;;;;;;5114819;28;20043;-75
2022/04/12 03:55:57;;;;;;;15.88;10.00;;;4.90;99.90;;;;;;5114108;28;20494;-75
2022/04/12 03:58:23;;;;;;;15.68;9.85;;;4.90;99.90;;;;;;5115051;28;20502;-75
2022/04/12 04:00:50;;;;;;;16.48;9.13;;;4.90;99.90;;;;;;5112378;28;20058;-75
2022/04/12 04:03:17;;;;;;;13.10;10.00;;;4.90;99.90;;;;;;5113522;28;20564;-75
2022/04/12 04:05:44;;;;;;;14.85;8.95;;;4.90;99.90;;;;;;5096035;28;20051;-75
2022/04/12 04:08:10;;;;;;;15.20;9.45;;;4.90;99.90;;;;;;5113906;28;20407;-75
2022/04/12 04:10:36;;;;;;;14.02;9.57;;;4.80;99.90;;;;;;5114849;28;20039;-75
2022/04/12 04:13:08;;;;;;;14.32;9.35;;;4.80;99.90;;;;;;5112763;28;20508;-75
2022/04/12 04:15:36;;;;;;;15.20;9.88;;;4.80;99.90;;;;;;5112759;28;20047;-75
2022/04/12 04:18:02;;;;;;;18.77;9.57;;;4.80;99.90;;;;;;5112965;28;20514;-75
2022/04/12 04:20:28;;;;;;;14.40;9.68;;;4.80;99.90;;;;;;5113221;28;20126;-75
2022/04/12 04:22:54;;;;;;;13.80;9.60;;;4.80;99.90;;;;;;5112645;28;20043;-75
2022/04/12 04:25:20;;;;;;;12.00;8.95;;;4.80;99.90;;;;;;5113502;28;20433;-75
2022/04/12 04:27:46;;;;;;;16.35;9.93;;;4.80;99.90;;;;;;5095606;28;20475;-75
2022/04/12 04:30:13;;;;;;;14.73;10.25;;;4.80;99.90;;;;;;5112276;28;20043;-75
2022/04/12 04:32:39;;;;;;;17.05;10.73;;;4.80;99.90;;;;;;5113105;28;20061;-75
2022/04/12 04:35:06;;;;;;;13.23;10.15;;;4.80;99.90;;;;;;5112396;28;20040;-75
2022/04/12 04:37:32;;;;;;;20.30;10.48;;;4.80;99.90;;;;;;5112225;28;20040;-75
2022/04/12 04:39:58;;;;;;;14.13;10.52;;;4.80;99.90;;;;;;5112749;28;20384;-75
2022/04/12 04:42:24;;;;;;;12.35;9.50;;;4.70;99.90;;;;;;5113835;28;20383;-75
2022/04/12 04:44:50;;;;;;;14.57;11.00;;;4.70;99.90;;;;;;5112032;28;20060;-75
2022/04/12 04:47:16;;;;;;;16.95;10.20;;;4.70;99.90;;;;;;5112860;28;20123;-75
2022/04/12 04:49:42;;;;;;;12.63;9.75;;;4.70;99.90;;;;;;5113330;27;20143;-75
2022/04/12 04:52:08;;;;;;;11.88;9.77;;;4.70;99.90;;;;;;5111276;28;20043;-74
2022/04/12 04:54:34;;;;;;;15.65;10.52;;;4.70;99.90;;;;;;5095979;28;20391;-75
2022/04/12 04:56:59;;;;;;;13.98;9.93;;;4.70;99.90;;;;;;5112877;28;20040;-75
2022/04/12 04:59:25;;;;;;;15.65;10.60;;;4.60;99.90;;;;;;5114145;28;20085;-75
2022/04/12 05:01:51;;;;;;;14.23;11.30;;;4.70;99.90;;;;;;5112147;28;20066;-75
2022/04/12 05:04:17;;;;;;;17.80;10.32;;;4.70;99.90;;;;;;5129310;28;20048;-75
2022/04/12 05:06:42;;;;;;;17.95;11.05;;;4.70;99.90;;;;;;5113692;28;20080;-75
2022/04/12 05:09:08;;;;;;;15.43;11.35;;;4.70;99.90;;;;;;5111310;28;20047;-75
2022/04/12 05:11:34;;;;;;;13.68;10.32;;;4.80;99.90;;;;;;5111878;28;20368;-75
2022/04/12 05:14:00;;;;;;;16.20;11.07;;;4.80;99.90;;;;;;5128137;28;20035;-75
2022/04/12 05:16:26;;;;;;;17.65;10.25;;;4.90;99.90;;;;;;5113383;28;20085;-75
2022/04/12 05:18:51;;;;;;;13.68;10.30;;;4.90;99.90;;;;;;5113140;28;20088;-76
2022/04/12 05:21:18;;;;;;;16.73;10.18;;;5.00;99.90;;;;;;5095394;28;20050;-76
2022/04/12 05:23:44;;;;;;;14.10;9.45;;;5.10;99.90;;;;;;5112605;28;20517;-76
2022/04/12 05:26:10;;;;;;;12.07;9.00;;;5.20;99.90;;;;;;5113031;28;20075;-76
2022/04/12 05:28:36;;;;;;;15.02;10.07;;;5.20;99.90;;;;;;5113666;28;20140;-76
2022/04/12 05:31:02;;;;;;;14.50;10.55;;;5.30;99.90;;;;;;5112195;28;20083;-74
2022/04/12 05:33:28;;;;;;;14.82;10.02;;;5.40;99.90;;;;;;5112080;28;20039;-75
2022/04/12 05:35:53;;;;;;;11.85;9.65;;;5.40;99.90;;;;;;5112211;28;20403;-75
2022/04/12 05:38:19;;;;;;;14.10;9.57;;;5.50;99.90;;;;;;5129179;28;20043;-75
2022/04/12 05:40:45;;;;;;;15.63;11.07;;;5.60;99.90;;;;;;5111453;28;20059;-75
2022/04/12 05:43:11;;;;;;;14.85;9.48;;;5.60;99.90;;;;;;5112566;28;20044;-75
2022/04/12 05:45:37;;;;;;;13.25;9.98;;;5.70;99.90;;;;;;5113071;28;20128;-75
2022/04/12 05:48:03;;;;;;;16.13;10.13;;;5.80;99.90;;;;;;5112790;28;20040;-75
2022/04/12 05:50:29;;;;;;;16.63;9.90;;;5.80;99.90;;;;;;5116663;28;20120;-75
2022/04/12 05:52:56;;;;;;;14.77;9.82;;;5.90;99.90;;;;;;5116121;28;20048;-75
2022/04/12 05:55:23;;;;;;;22.17;9.80;;;5.90;99.90;;;;;;5115494;28;20097;-75
2022/04/12 05:57:55;;;;;;;16.48;10.68;;;6.00;99.90;;;;;;5098750;28;20521;-75
2022/04/12 06:00:25;;;;;;;14.60;10.05;;;6.10;99.90;;;;;;5116409;28;20513;-75
2022/04/12 06:02:52;;;;;;;16.35;9.45;;;6.20;99.90;;;;;;5099266;28;20104;-75
2022/04/12 06:05:18;;;;;;;15.80;10.40;;;6.20;99.90;;;;;;5115982;28;20039;-75
2022/04/12 06:07:44;;;;;;;15.75;10.45;;;6.30;99.90;;;;;;5098599;28;20054;-75
2022/04/12 06:10:12;;;;;;;12.98;10.07;;;6.40;99.90;;;;;;5115974;28;20104;-75
2022/04/12 06:12:38;;;;;;;16.40;10.50;;;6.50;99.90;;;;;;5114945;28;20048;-75
2022/04/12 06:15:05;;;;;;;19.40;10.88;;;6.50;99.90;;;;;;5114643;28;20071;-75
2022/04/12 06:17:32;;;;;;;12.88;9.68;;;6.70;99.90;;;;;;5115055;28;20039;-74
2022/04/12 06:20:07;;;;;;;14.88;9.90;;;6.70;99.90;;;;;;5113936;28;20058;-75
2022/04/12 06:22:33;;;;;;;16.27;10.07;;;6.80;99.90;;;;;;5115162;28;20501;-75
2022/04/12 06:24:59;;;;;;;12.98;9.88;;;6.80;99.90;;;;;;5115387;28;20058;-75
2022/04/12 06:27:35;;;;;;;13.90;9.02;;;6.90;99.90;;;;;;5116219;28;20414;-75
2022/04/12 06:30:17;;;;;;;12.68;9.18;;;7.00;99.90;;;;;;5115770;28;20491;-75
2022/04/12 06:32:44;;;;;;;12.23;9.77;;;7.00;99.90;;;;;;5114927;28;20059;-75
2022/04/12 06:35:11;;;;;;;12.80;9.18;;;7.10;99.90;;;;;;5097772;28;20479;-75
2022/04/12 06:37:39;;;;;;;13.63;9.57;;;7.10;99.90;;;;;;5114874;28;20177;-75
2022/04/12 06:40:07;;;;;;;14.07;9.25;;;7.20;99.90;;;;;;5114577;28;20118;-75
2022/04/12 06:42:34;;;;;;;11.55;9.35;;;7.20;99.90;;;;;;5114516;28;20103;-75
2022/04/12 06:45:00;;;;;;;12.20;8.90;;;7.30;99.90;;;;;;5114768;28;20406;-75
2022/04/12 06:47:26;;;;;;;14.82;9.18;;;7.30;99.90;;;;;;5114968;28;20059;-75
2022/04/12 06:49:53;;;;;;;11.73;9.70;;;7.40;99.90;;;;;;5113959;28;20056;-75
2022/04/12 06:52:20;;;;;;;14.93;10.00;;;7.40;99.90;;;;;;5116029;28;20060;-75
2022/04/12 06:54:47;;;;;;;11.48;8.63;;;7.50;99.90;;;;;;5114598;28;20510;-75
2022/04/12 06:57:13;;;;;;;12.63;10.27;;;7.50;99.90;;;;;;5113849;28;20043;-75
2022/04/12 06:59:39;;;;;;;15.55;10.27;;;7.50;99.90;;;;;;5114668;28;20049;-75
2022/04/12 07:02:05;;;;;;;14.75;9.77;;;7.50;99.90;;;;;;5114567;28;20559;-75
2022/04/12 07:04:31;;;;;;;16.83;9.82;;;7.60;99.90;;;;;;5114166;28;20394;-75
2022/04/12 07:06:58;;;;;;;12.20;9.20;;;7.60;99.90;;;;;;5114933;28;20130;-74
2022/04/12 07:09:27;;;;;;;12.38;9.07;;;7.70;99.90;;;;;;5114534;28;20437;-75
2022/04/12 07:11:53;;;;;;;12.40;9.52;;;7.80;99.90;;;;;;5097349;28;20054;-74
2022/04/12 07:14:19;;;;;;;11.75;9.23;;;7.90;99.90;;;;;;5115714;28;20449;-75
2022/04/12 07:16:45;;;;;;;12.05;8.48;;;8.00;99.90;;;;;;5113660;28;20127;-75
2022/04/12 07:19:11;;;;;;;11.45;8.40;;;8.20;99.90;;;;;;5113823;28;20059;-75
2022/04/12 07:21:37;;;;;;;16.00;9.00;;;8.30;99.90;;;;;;5114655;28;20043;-75
2022/04/12 07:24:03;;;;;;;11.40;8.35;;;8.40;99.90;;;;;;5114438;28;20035;-74
2022/04/12 07:26:33;;;;;;;14.43;8.80;;;8.50;99.90;;;;;;5115001;28;20051;-74
2022/04/12 07:28:59;;;;;;;11.85;9.23;;;8.70;99.90;;;;;;5114135;28;20130;-75
2022/04/12 07:31:25;;;;;;;10.88;8.18;;;8.80;99.90;;;;;;5115681;28;20444;-75
2022/04/12 07:33:51;;;;;;;11.23;7.68;;;8.90;99.90;;;;;;5113646;28;20043;-74
2022/04/12 07:36:17;;;;;;;10.70;8.32;;;9.00;99.90;;;;;;5115147;28;20189;-75
2022/04/12 07:38:43;;;;;;;12.30;8.70;;;9.20;99.90;;;;;;5113664;28;20051;-74
2022/04/12 07:41:09;;;;;;;10.63;8.57;;;9.30;99.90;;;;;;5114062;28;20610;-75
2022/04/12 07:43:36;;;;;;;11.15;8.20;;;9.40;99.90;;;;;;5113897;28;20039;-75
2022/04/12 07:46:02;;;;;;;11.15;7.68;;;9.50;99.90;;;;;;5114530;28;20055;-74
2022/04/12 07:48:28;;;;;;;14.13;9.18;;;9.60;99.90;;;;;;5096675;28;20039;-74
2022/04/12 07:50:54;;;;;;;11.20;8.40;;;9.70;99.90;;;;;;5096529;28;20058;-74
2022/04/12 07:53:20;;;;;;;12.13;8.48;;;9.80;99.90;;;;;;5114548;28;20123;-75
2022/04/12 07:55:46;;;;;;;12.43;7.82;;;9.90;99.90;;;;;;5113701;28;20047;-75
2022/04/12 07:58:12;;;;;;;12.57;8.10;;;10.00;99.90;;;;;;5113645;28;20046;-74
2022/04/12 08:00:38;;;;;;;13.35;8.23;;;10.10;99.90;;;;;;5114441;28;20421;-75
2022/04/12 08:03:03;;;;;;;11.10;7.85;;;10.30;99.90;;;;;;5114809;28;20067;-75
2022/04/12 08:05:29;;;;;;;12.00;8.23;;;10.50;99.90;;;;;;5113636;28;20104;-74
2022/04/12 08:07:55;;;;;;;13.95;8.82;;;10.60;99.90;;;;;;5095911;28;20407;-74
2022/04/12 08:10:21;;;;;;;14.35;8.45;;;10.70;99.90;;;;;;5112809;28;20044;-75
2022/04/12 08:12:47;;;;;;;10.23;7.60;;;10.90;99.90;;;;;;5113434;28;20047;-74
2022/04/12 08:15:15;;;;;;;11.00;7.15;;;11.00;99.90;;;;;;5096051;28;20047;-74
2022/04/12 08:17:41;;;;;;;18.40;9.15;;;11.10;99.90;;;;;;5114758;28;20075;-74
2022/04/12 08:20:11;;;;;;;11.02;8.05;;;11.20;99.90;;;;;;5113179;28;20058;-74
2022/04/12 08:22:37;;;;;;;11.75;8.40;;;11.30;99.90;;;;;;5113898;28;20043;-74
2022/04/12 08:25:04;;;;;;;10.23;7.28;;;11.40;99.90;;;;;;5113320;28;20093;-75
2022/04/12 08:27:30;;;;;;;12.13;8.35;;;11.50;99.90;;;;;;5112864;28;20492;-74
2022/04/12 08:29:56;;;;;;;10.50;7.85;;;11.70;99.90;;;;;;5095533;28;20046;-74
2022/04/12 08:32:22;;;;;;;14.15;7.53;;;11.80;99.90;;;;;;5113139;28;20364;-74
2022/04/12 08:34:48;;;;;;;12.45;7.65;;;12.00;99.90;;;;;;5113138;28;20046;-74
2022/04/12 08:37:14;;;;;;;12.55;8.20;;;12.00;99.90;;;;;;5112387;28;20122;-74
2022/04/12 08:39:39;;;;;;;12.90;8.18;;;12.10;99.90;;;;;;5095650;28;20043;-75
2022/04/12 08:42:06;;;;;;;13.30;7.97;;;12.20;99.90;;;;;;5113521;28;20070;-74
2022/04/12 08:44:33;;;;;;;11.30;7.68;;;12.30;99.90;;;;;;5112951;28;20563;-75
2022/04/12 08:47:06;;;;;;;10.55;7.68;;;12.30;99.90;;;;;;5114027;28;20104;-75
2022/04/12 08:49:34;;;;;;;10.02;7.90;;;12.40;99.90;;;;;;5113315;28;20052;-75
2022/04/12 08:52:00;;;;;;;9.68;7.35;;;12.40;99.90;;;;;;5112941;28;20052;-75
2022/04/12 08:54:28;;;;;;;9.15;7.70;;;12.50;99.90;;;;;;5095471;28;20044;-75
2022/04/12 08:56:55;;;;;;;12.98;7.55;;;12.50;99.90;;;;;;5113661;28;20425;-75
2022/04/12 08:59:20;;;;;;;11.98;7.50;;;12.60;99.90;;;;;;5114180;28;20105;-75
2022/04/12 09:01:46;;;;;;;9.15;7.07;;;12.70;99.90;;;;;;5113667;28;20044;-75
2022/04/12 09:04:13;;;;;;;12.73;7.80;;;12.80;99.90;;;;;;5095460;28;20083;-74
2022/04/12 09:06:49;;;;;;;10.52;7.30;;;12.90;99.90;;;;;;5114033;28;20107;-75
2022/04/12 09:09:19;;;;;;;11.25;7.13;;;13.00;99.90;;;;;;5113737;28;20047;-75
2022/04/12 09:12:09;;;;;;;9.95;6.80;;;13.10;99.90;;;;;;5112371;28;20055;-75
2022/04/12 09:14:42;;;;;;;14.82;7.60;;;13.30;99.90;;;;;;5112711;28;20116;-75
2022/04/12 09:17:13;;;;;;;9.50;6.63;;;13.40;99.90;;;;;;5113519;28;20502;-75
2022/04/12 09:19:45;;;;;;;10.35;7.32;;;13.50;99.90;;;;;;5112758;28;20055;-74
2022/04/12 09:22:21;;;;;;;14.82;8.15;;;13.60;99.90;;;;;;5113771;28;20048;-74
2022/04/12 09:24:49;;;;;;;11.80;7.22;;;13.70;99.90;;;;;;5117454;28;20068;-74
2022/04/12 09:27:17;;;;;;;10.75;7.32;;;13.80;99.90;;;;;;5116775;28;20092;-74
2022/04/12 09:29:46;;;;;;;13.13;7.85;;;13.80;99.90;;;;;;5116255;28;20051;-74
2022/04/12 09:32:14;;;;;;;9.52;7.25;;;13.90;99.90;;;;;;5116196;28;20105;-74
2022/04/12 09:34:44;;;;;;;10.85;7.43;;;14.00;99.90;;;;;;5116771;28;20052;-74
2022/04/12 09:37:20;;;;;;;11.20;7.47;;;14.20;99.90;;;;;;5117522;28;20050;-74
2022/04/12 09:40:13;;;;;;;9.68;7.07;;;14.30;99.90;;;;;;5115848;28;20177;-74
2022/04/12 09:42:45;;;;;;;9.25;6.93;;;14.40;99.90;;;;;;5116322;28;20134;-74
2022/04/12 09:45:19;;;;;;;12.27;7.13;;;14.40;99.90;;;;;;5116667;28;20490;-74
2022/04/12 09:47:51;;;;;;;8.60;6.78;;;14.60;99.90;;;;;;5116401;28;20087;-74
2022/04/12 09:50:21;;;;;;;8.82;6.85;;;14.60;99.90;;;;;;5115851;28;20047;-74
2022/04/12 09:52:59;;;;;;;8.68;6.80;;;14.70;99.90;;;;;;5115697;28;20126;-74
2022/04/12 09:55:35;;;;;;;13.25;7.15;;;14.80;99.90;;;;;;5116306;28;20044;-74
2022/04/12 09:58:02;;;;;;;13.25;7.30;;;14.90;99.90;;;;;;5116108;28;20123;-74
2022/04/12 10:00:32;;;;;;;9.85;6.93;;;15.10;99.90;;;;;;5098423;28;20051;-74
2022/04/12 10:03:07;;;;;;;10.20;6.75;;;15.30;99.90;;;;;;5116028;28;20036;-75
2022/04/12 10:05:33;;;;;;;10.63;7.93;;;15.40;99.90;;;;;;5116862;27;20483;-75
2022/04/12 10:08:02;;;;;;;10.20;7.30;;;15.60;99.90;;;;;;5115218;28;20044;-74
2022/04/12 10:10:28;;;;;;;9.93;7.30;;;15.70;99.90;;;;;;5115390;28;20052;-74
2022/04/12 10:12:56;;;;;;;10.05;7.13;;;15.90;99.80;;;;;;5116159;28;20054;-75
2022/04/12 10:15:22;;;;;;;11.25;6.70;;;16.00;98.10;;;;;;5115036;28;20047;-75
2022/04/12 10:17:52;;;;;;;15.32;7.25;;;16.10;97.90;;;;;;5115359;28;20050;-74
2022/04/12 10:20:19;;;;;;;13.43;7.50;;;16.20;97.60;;;;;;5098638;28;20039;-75
2022/04/12 10:22:46;;;;;;;10.90;7.38;;;16.40;98.20;;;;;;5115053;28;20040;-75
2022/04/12 10:25:16;;;;;;;9.45;7.55;;;16.60;98.30;;;;;;5116664;27;20062;-75
2022/04/12 10:27:42;;;;;;;11.27;7.80;;;16.80;96.90;;;;;;5116207;28;20048;-75
2022/04/12 10:30:28;;;;;;;10.02;6.85;;;16.90;96.10;;;;;;5115520;28;20131;-75
2022/04/12 10:33:00;;;;;;;9.85;6.57;;;17.00;94.90;;;;;;5115012;28;20487;-75
2022/04/12 10:35:47;;;;;;;9.98;7.28;;;17.10;95.10;;;;;;5114234;28;20047;-75
2022/04/12 10:38:18;;;;;;;11.07;7.18;;;17.20;94.80;;;;;;5116506;28;20047;-75
2022/04/12 10:40:49;;;;;;;10.73;6.85;;;17.40;95.10;;;;;;5115211;28;20474;-75
2022/04/12 10:43:21;;;;;;;10.82;7.13;;;17.50;95.00;;;;;;5116168;28;20131;-75
2022/04/12 10:45:49;;;;;;;12.02;7.65;;;17.50;94.60;;;;;;5114854;28;20055;-75
2022/04/12 10:48:23;;;;;;;11.75;7.57;;;17.50;94.50;;;;;;5116651;28;20058;-75
2022/04/12 10:50:55;;;;;;;11.80;7.47;;;17.60;93.60;;;;;;5114589;28;20066;-74
2022/04/12 10:53:37;;;;;;;9.18;7.10;;;17.60;94.60;;;;;;5116159;27;20508;-75
2022/04/12 10:56:08;;;;;;;12.82;7.70;;;17.80;93.70;;;;;;5115783;28;20120;-75
2022/04/12 10:58:34;;;;;;;12.63;7.18;;;17.90;93.40;;;;;;5098182;28;20066;-75
2022/04/12 11:01:01;;;;;;;11.70;7.78;;;17.90;94.30;;;;;;5115850;28;20036;-75
2022/04/12 11:03:53;;;;;;;10.18;7.55;;;18.00;94.30;;;;;;5115479;28;20036;-75
2022/04/12 11:06:30;;;;;;;8.02;7.20;;;18.20;92.60;;;;;;5105215;27;20059;-75
2022/04/12 11:09:16;;;;;;;10.38;6.93;;;18.20;93.10;;;;;;5116159;28;20048;-75
2022/04/12 11:11:45;;;;;;;11.38;7.03;;;18.40;93.90;;;;;;5115266;27;20044;-75
2022/04/12 11:14:27;;;;;;;10.57;7.57;;;18.50;93.80;;;;;;5115830;28;20031;-75
2022/04/12 11:17:15;;;;;;;11.23;7.35;;;18.50;92.60;;;;;;5114042;28;20048;-75
2022/04/12 11:19:50;;;;;;;8.60;6.60;;;18.50;90.80;;;;;;5115880;28;20066;-75
2022/04/12 11:22:18;;;;;;;11.25;6.70;;;18.40;92.50;;;;;;5115418;28;20044;-75
2022/04/12 11:25:13;;;;;;;9.75;7.40;;;18.50;92.80;;;;;;5114035;28;20055;-75
2022/04/12 11:27:39;;;;;;;13.13;7.45;;;18.50;91.90;;;;;;5114378;28;20096;-75
2022/04/12 11:30:05;;;;;;;8.40;6.57;;;18.50;92.30;;;;;;5115609;28;20043;-74
2022/04/12 11:32:32;;;;;;;7.80;6.10;;;18.50;92.50;;;;;;5096703;28;20535;-74
2022/04/12 11:34:59;;;;;;;13.43;6.72;;;18.50;91.70;;;;;;5114206;28;20039;-74
2022/04/12 11:37:25;;;;;;;10.02;5.85;;;18.50;91.70;;;;;;5114300;28;20039;-74
2022/04/12 11:39:51;;;;;;;10.85;6.60;;;18.50;90.60;;;;;;5114425;28;20036;-75
2022/04/12 11:42:17;;;;;;;9.15;7.03;;;18.60;90.40;;;;;;5113007;28;20047;-75
2022/04/12 11:44:53;;;;;;;10.65;7.68;;;18.60;89.40;;;;;;5096670;28;20438;-75
2022/04/12 11:47:20;;;;;;;13.05;6.93;;;18.60;89.10;;;;;;5110615;28;20137;-74
2022/04/12 11:49:46;;;;;;;10.00;6.88;;;18.70;89.50;;;;;;5109025;28;20058;-75
2022/04/12 11:52:14;;;;;;;8.70;6.80;;;18.80;90.30;;;;;;5096247;28;20461;-75
2022/04/12 11:54:45;;;;;;;7.88;6.35;;;18.90;90.20;;;;;;5113885;28;20104;-75
2022/04/12 11:57:13;;;;;;;9.32;6.55;;;19.10;90.60;;;;;;5114742;28;20539;-75
2022/04/12 11:59:50;;;;;;;13.75;7.50;;;19.20;90.40;;;;;;5112349;28;20048;-74
2022/04/12 12:02:19;;;;;;;10.57;7.35;;;19.30;87.30;;;;;;5113440;28;20054;-75
2022/04/12 12:04:51;;;;;;;10.32;6.43;;;19.40;87.50;;;;;;5113967;27;20059;-75
2022/04/12 12:07:18;;;;;;;11.07;6.40;;;19.40;87.00;;;;;;5094530;28;20036;-75
2022/04/12 12:10:11;;;;;;;9.90;5.65;;;19.50;87.30;;;;;;5110451;28;20051;-75
2022/04/12 12:12:39;;;;;;;7.32;6.25;;;19.60;86.70;;;;;;5111575;27;20048;-74
2022/04/12 12:15:22;;;;;;;9.98;6.10;;;19.70;87.40;;;;;;5113846;28;20043;-75
2022/04/12 12:17:49;;;;;;;9.43;6.30;;;19.70;84.50;;;;;;5112292;28;20039;-75
2022/04/12 12:20:18;;;;;;;8.93;5.50;;;19.80;85.30;;;;;;5092574;28;20449;-74
2022/04/12 12:22:46;;;;;;;6.90;5.72;;;19.90;86.10;;;;;;5093084;28;20538;-75
2022/04/12 12:25:18;;;;;;;13.73;6.43;;;19.90;83.60;;;;;;5107378;28;20376;-75
2022/04/12 12:27:51;;;;;;;9.55;6.88;;;20.00;82.50;;;;;;5113516;28;20481;-75
2022/04/12 12:30:19;;;;;;;8.35;6.35;;;19.90;80.80;;;;;;5112715;28;20043;-75
2022/04/12 12:32:45;;;;;;;10.98;6.57;;;19.80;81.30;;;;;;5095572;28;20119;-74
2022/04/12 12:35:13;;;;;;;7.95;6.30;;;19.70;81.10;;;;;;5113588;28;20197;-74
2022/04/12 12:37:40;;;;;;;10.95;7.35;;;19.70;81.50;;;;;;5114382;28;20047;-75
2022/04/12 12:40:19;;;;;;;9.10;6.20;;;19.70;82.40;;;;;;5113256;28;20050;-74
2022/04/12 12:42:46;;;;;;;8.65;6.90;;;19.80;83.60;;;;;;5113292;28;20039;-75
2022/04/12 12:45:17;;;;;;;12.25;7.50;;;19.90;83.00;;;;;;5113869;28;20112;-74
2022/04/12 12:47:44;;;;;;;10.32;7.50;;;20.10;82.50;;;;;;5112841;28;20047;-74
2022/04/12 12:50:11;;;;;;;10.73;7.63;;;20.10;82.00;;;;;;5111807;28;20134;-75